createdAt,value
2018-12-28T00:00:00.294Z,101775.09
2018-12-28T00:02:28.890Z,101773.86
2018-12-28T00:05:00.455Z,101774.74
2018-12-28T00:07:31.992Z,101776.46
2018-12-28T00:10:03.281Z,101779.91
2018-12-28T00:12:32.299Z,101773.84
2018-12-28T00:15:00.855Z,101773.03
2018-12-28T00:17:32.600Z,101770.83
2018-12-28T00:20:01.595Z,101777.30
2018-12-28T00:22:33.480Z,101774.30
2018-12-28T00:25:05.302Z,101780.72
2018-12-28T00:27:33.856Z,101769.20
2018-12-28T00:30:06.388Z,101776.05
2018-12-28T00:32:34.983Z,101787.23
2018-12-28T00:35:06.373Z,101785.47
2018-12-28T00:37:37.658Z,101783.77
2018-12-28T00:40:07.673Z,101785.95
2018-12-28T00:42:36.239Z,101786.31
2018-12-28T00:45:05.568Z,101784.62
2018-12-28T00:47:34.133Z,101788.95
2018-12-28T00:50:02.688Z,101792.80
2018-12-28T00:52:31.256Z,101794.93
2018-12-28T00:54:59.826Z,101797.45
2018-12-28T00:57:28.382Z,101788.89
2018-12-28T00:59:56.944Z,101796.58
2018-12-28T01:02:25.515Z,101796.58
2018-12-28T01:04:56.128Z,101804.33
2018-12-28T01:07:26.435Z,101803.87
2018-12-28T01:09:54.993Z,101805.64
2018-12-28T01:12:25.609Z,101802.68
2018-12-28T01:14:53.836Z,101802.68
2018-12-28T01:17:22.450Z,101812.11
2018-12-28T01:19:51.006Z,101807.02
2018-12-28T01:22:19.575Z,101798.84
2018-12-28T01:24:48.135Z,101815.59
2018-12-28T01:27:16.702Z,101810.83
2018-12-28T01:29:45.267Z,101814.69
2018-12-28T01:32:13.821Z,101804.77
2018-12-28T01:34:42.389Z,101803.88
2018-12-28T01:37:10.954Z,101809.50
2018-12-28T01:39:42.188Z,101823.78
2018-12-28T01:42:10.770Z,101817.74
2018-12-28T01:44:39.342Z,101822.49
2018-12-28T01:47:07.906Z,101816.44
2018-12-28T01:49:36.456Z,101823.31
2018-12-28T01:52:05.409Z,101820.77
2018-12-28T01:54:34.028Z,101828.48
2018-12-28T01:57:02.586Z,101829.33
2018-12-28T01:59:31.206Z,101832.77
2018-12-28T02:01:59.767Z,101828.48
2018-12-28T02:04:28.327Z,101827.64
2018-12-28T02:06:56.890Z,101827.64
2018-12-28T02:09:28.635Z,101828.11
2018-12-28T02:11:57.256Z,101824.64
2018-12-28T02:14:27.327Z,101829.82
2018-12-28T02:16:57.396Z,101834.13
2018-12-28T02:19:28.900Z,101829.42
2018-12-28T02:22:00.568Z,101827.67
2018-12-28T02:24:32.078Z,101823.37
2018-12-28T02:27:00.651Z,101822.49
2018-12-28T02:29:29.210Z,101819.00
2018-12-28T02:32:00.432Z,101822.93
2018-12-28T02:34:31.922Z,101814.75
2018-12-28T02:37:03.389Z,101817.80
2018-12-28T02:39:36.935Z,101817.80
2018-12-28T02:42:08.199Z,101826.86
2018-12-28T02:44:39.858Z,101819.52
2018-12-28T02:47:11.203Z,101818.66
2018-12-28T02:49:43.102Z,101822.49
2018-12-28T02:52:14.759Z,101820.33
2018-12-28T02:54:46.292Z,101831.94
2018-12-28T02:57:17.878Z,101834.95
2018-12-28T02:59:49.414Z,101832.80
2018-12-28T03:02:21.404Z,101826.77
2018-12-28T03:04:52.650Z,101825.91
2018-12-28T03:07:21.214Z,101819.41
2018-12-28T03:09:52.541Z,101817.74
2018-12-28T03:12:25.544Z,101813.89
2018-12-28T03:14:56.791Z,101813.02
2018-12-28T03:17:28.273Z,101808.72
2018-12-28T03:19:56.827Z,101810.38
2018-12-28T03:22:28.404Z,101811.20
2018-12-28T03:24:59.679Z,101820.29
2018-12-28T03:27:30.979Z,101815.12
2018-12-28T03:30:02.238Z,101813.37
2018-12-28T03:32:30.808Z,101821.60
2018-12-28T03:35:02.043Z,101818.59
2018-12-28T03:37:34.127Z,101816.84
2018-12-28T03:40:07.200Z,101806.89
2018-12-28T03:42:35.754Z,101806.89
2018-12-28T03:45:04.570Z,101817.69
2018-12-28T03:47:33.173Z,101807.74
2018-12-28T03:50:01.727Z,101806.45
2018-12-28T03:52:30.419Z,101809.47
2018-12-28T03:54:58.989Z,101815.50
2018-12-28T03:57:27.537Z,101811.62
2018-12-28T03:59:56.111Z,101811.62
2018-12-28T04:02:26.324Z,101809.06
2018-12-28T04:04:54.886Z,101808.23
2018-12-28T04:07:23.631Z,101812.49
2018-12-28T04:09:52.176Z,101813.36
2018-12-28T04:12:20.747Z,101814.69
2018-12-28T04:14:49.311Z,101809.53
2018-12-28T04:17:17.869Z,101806.05
2018-12-28T04:19:46.431Z,101806.05
2018-12-28T04:22:14.984Z,101808.62
2018-12-28T04:24:43.547Z,101813.79
2018-12-28T04:27:12.109Z,101815.09
2018-12-28T04:29:40.670Z,101805.20
2018-12-28T04:32:09.243Z,101811.22
2018-12-28T04:34:37.795Z,101808.64
2018-12-28T04:37:06.369Z,101812.87
2018-12-28T04:39:34.934Z,101813.37
2018-12-28T04:42:03.485Z,101818.50
2018-12-28T04:44:32.400Z,101799.55
2018-12-28T04:47:00.956Z,101799.55
2018-12-28T04:49:29.524Z,101813.79
2018-12-28T04:51:58.559Z,101819.81
2018-12-28T04:54:28.261Z,101812.89
2018-12-28T04:56:58.055Z,101814.16
2018-12-28T04:59:30.091Z,101808.56
2018-12-28T05:02:01.712Z,101812.06
2018-12-28T05:04:36.124Z,101807.33
2018-12-28T05:07:30.810Z,101812.03
2018-12-28T05:10:16.902Z,101820.18
2018-12-28T05:12:50.207Z,101825.77
2018-12-28T05:15:41.279Z,101823.64
2018-12-28T05:18:26.401Z,101826.66
2018-12-28T05:21:12.919Z,101825.80
2018-12-28T05:23:47.251Z,101825.78
2018-12-28T05:26:51.654Z,101823.60
2018-12-28T05:29:28.984Z,101827.89
2018-12-28T05:32:00.018Z,101826.66
2018-12-28T05:34:28.577Z,101833.54
2018-12-28T05:36:59.823Z,101828.81
2018-12-28T05:39:28.379Z,101832.20
2018-12-28T05:42:00.021Z,101828.80
2018-12-28T05:44:31.248Z,101839.06
2018-12-28T05:47:00.202Z,101831.33
2018-12-28T05:49:28.755Z,101835.23
2018-12-28T05:51:57.322Z,101839.06
2018-12-28T05:54:28.869Z,101839.52
2018-12-28T05:56:57.413Z,101834.80
2018-12-28T05:59:29.031Z,101840.81
2018-12-28T06:01:58.020Z,101839.97
2018-12-28T06:04:28.535Z,101844.65
2018-12-28T06:06:59.891Z,101845.94
2018-12-28T06:09:31.418Z,101843.79
2018-12-28T06:12:00.049Z,101842.17
2018-12-28T06:14:31.375Z,101843.37
2018-12-28T06:17:00.005Z,101842.55
2018-12-28T06:19:28.583Z,101846.84
2018-12-28T06:21:57.541Z,101851.56
2018-12-28T06:24:28.708Z,101857.22
2018-12-28T06:26:59.968Z,101854.64
2018-12-28T06:29:31.202Z,101864.50
2018-12-28T06:31:59.765Z,101859.73
2018-12-28T06:34:28.327Z,101864.03
2018-12-28T06:36:56.888Z,101861.41
2018-12-28T06:39:25.440Z,101869.20
2018-12-28T06:41:56.281Z,101867.50
2018-12-28T06:44:24.917Z,101854.59
2018-12-28T06:46:54.762Z,101864.91
2018-12-28T06:49:23.321Z,101865.75
2018-12-28T06:51:51.997Z,101873.52
2018-12-28T06:54:42.401Z,101862.31
2018-12-28T06:57:39.894Z,101872.66
2018-12-28T07:00:44.670Z,101869.66
2018-12-28T07:03:34.443Z,101875.68
2018-12-28T07:06:40.793Z,101872.63
2018-12-28T07:09:47.999Z,101873.53
2018-12-28T07:12:31.008Z,101873.11
2018-12-28T07:15:18.130Z,101873.97
2018-12-28T07:18:12.653Z,101871.81
2018-12-28T07:21:05.650Z,101870.50
2018-12-28T07:24:10.439Z,101876.95
2018-12-28T07:27:02.223Z,101867.06
2018-12-28T07:29:39.690Z,101867.06
2018-12-28T07:32:44.032Z,101870.05
2018-12-28T07:35:27.343Z,101861.40
2018-12-28T07:38:19.614Z,101861.80
2018-12-28T07:41:29.901Z,101859.67
2018-12-28T07:44:04.291Z,101858.34
2018-12-28T07:46:42.368Z,101870.89
2018-12-28T07:49:28.686Z,101874.36
2018-12-28T07:52:08.953Z,101878.23
2018-12-28T07:55:01.065Z,101876.51
2018-12-28T07:57:43.723Z,101879.05
2018-12-28T08:00:33.515Z,101868.33
2018-12-28T08:03:13.919Z,101870.44
2018-12-28T08:05:51.329Z,101862.67
2018-12-28T08:08:46.716Z,101862.67
2018-12-28T08:11:26.508Z,101868.25
2018-12-28T08:14:03.771Z,101866.95
2018-12-28T08:16:38.022Z,101876.84
2018-12-28T08:19:34.365Z,101874.22
2018-12-28T08:22:05.984Z,101879.84
2018-12-28T08:24:49.029Z,101886.33
2018-12-28T08:27:40.838Z,101887.65
2018-12-28T08:30:36.611Z,101890.67
2018-12-28T08:33:23.214Z,101886.42
2018-12-28T08:36:00.941Z,101898.86
2018-12-28T08:38:44.535Z,101908.42
2018-12-28T08:41:38.765Z,101908.42
2018-12-28T08:44:16.254Z,101904.05
2018-12-28T08:46:50.466Z,101911.34
2018-12-28T08:49:37.245Z,101910.42
2018-12-28T08:52:17.826Z,101909.13
2018-12-28T08:55:08.567Z,101907.45
2018-12-28T08:57:49.055Z,101910.39
2018-12-28T09:00:43.296Z,101906.50
2018-12-28T09:03:17.766Z,101913.02
2018-12-28T09:06:05.662Z,101914.21
2018-12-28T09:08:57.428Z,101920.28
2018-12-28T09:11:43.932Z,101923.70
2018-12-28T09:14:30.655Z,101924.64
2018-12-28T09:17:35.701Z,101917.70
2018-12-28T09:20:26.758Z,101922.88
2018-12-28T09:23:01.075Z,101929.35
2018-12-28T09:26:07.903Z,101923.69
2018-12-28T09:28:48.963Z,101926.29
2018-12-28T09:31:26.597Z,101927.59
2018-12-28T09:34:17.854Z,101932.34
2018-12-28T09:36:58.377Z,101936.22
2018-12-28T09:40:15.301Z,101930.64
2018-12-28T09:43:20.967Z,101936.19
2018-12-28T09:46:04.163Z,101937.09
2018-12-28T09:48:32.890Z,101931.84
2018-12-28T09:51:09.827Z,101942.23
2018-12-28T09:53:50.298Z,101939.12
2018-12-28T09:56:45.356Z,101945.56
2018-12-28T09:59:45.101Z,101942.63
2018-12-28T10:02:31.430Z,101945.17
2018-12-28T10:05:06.703Z,101942.06
2018-12-28T10:07:47.044Z,101940.85
2018-12-28T10:10:24.811Z,101942.98
2018-12-28T10:13:02.110Z,101941.77
2018-12-28T10:15:37.025Z,101938.67
2018-12-28T10:18:05.607Z,101937.34
2018-12-28T10:20:34.184Z,101946.41
2018-12-28T10:23:05.533Z,101938.51
2018-12-28T10:25:34.095Z,101932.34
2018-12-28T10:28:02.655Z,101932.32
2018-12-28T10:30:31.208Z,101921.65
2018-12-28T10:32:59.767Z,101921.55
2018-12-28T10:35:28.685Z,101922.42
2018-12-28T10:37:57.305Z,101923.59
2018-12-28T10:40:25.878Z,101913.70
2018-12-28T10:42:54.475Z,101920.08
2018-12-28T10:45:25.919Z,101910.08
2018-12-28T10:47:54.645Z,101910.06
2018-12-28T10:50:26.415Z,101909.19
2018-12-28T10:53:29.488Z,101908.25
2018-12-28T10:55:57.096Z,101907.98
2018-12-28T10:59:02.895Z,101910.70
2018-12-28T11:01:31.805Z,101913.39
2018-12-28T11:04:25.945Z,101913.79
2018-12-28T11:06:54.654Z,101914.66
2018-12-28T11:09:24.556Z,101909.03
2018-12-28T11:11:53.107Z,101904.68
2018-12-28T11:14:21.727Z,101908.16
2018-12-28T11:16:53.315Z,101907.63
2018-12-28T11:19:21.885Z,101909.69
2018-12-28T11:21:50.481Z,101899.00
2018-12-28T11:24:19.044Z,101907.63
2018-12-28T11:26:50.102Z,101905.34
2018-12-28T11:29:21.605Z,101898.94
2018-12-28T11:31:52.987Z,101909.34
2018-12-28T11:34:26.635Z,101907.67
2018-12-28T11:36:58.111Z,101906.25
2018-12-28T11:39:29.747Z,101905.41
2018-12-28T11:42:01.227Z,101904.91
2018-12-28T11:44:29.828Z,101913.53
2018-12-28T11:47:02.303Z,101914.02
2018-12-28T11:49:34.097Z,101917.82
2018-12-28T11:52:02.662Z,101916.98
2018-12-28T11:54:31.251Z,101912.70
2018-12-28T11:57:02.655Z,101916.05
2018-12-28T11:59:31.256Z,101918.58
2018-12-28T12:02:02.896Z,101912.07
2018-12-28T12:04:31.876Z,101915.05
2018-12-28T12:07:00.803Z,101921.63
2018-12-28T12:09:29.357Z,101915.13
2018-12-28T12:12:00.326Z,101921.61
2018-12-28T12:14:28.192Z,101925.42
2018-12-28T12:16:56.748Z,101929.63
2018-12-28T12:19:27.835Z,101930.19
2018-12-28T12:21:59.346Z,101941.00
2018-12-28T12:24:30.884Z,101939.22
2018-12-28T12:26:59.439Z,101942.95
2018-12-28T12:29:28.311Z,101937.88
2018-12-28T12:31:56.917Z,101933.93
2018-12-28T12:34:28.529Z,101942.66
2018-12-28T12:36:57.141Z,101945.70
2018-12-28T12:39:28.853Z,101937.92
2018-12-28T12:41:57.414Z,101942.73
2018-12-28T12:44:28.932Z,101939.80
2018-12-28T12:46:57.655Z,101940.23
2018-12-28T12:49:28.902Z,101945.33
2018-12-28T12:51:57.536Z,101951.94
2018-12-28T12:54:26.439Z,101953.70
2018-12-28T12:56:58.438Z,101955.45
2018-12-28T12:59:30.153Z,101946.39
2018-12-28T13:01:59.570Z,101949.84
2018-12-28T13:04:31.072Z,101952.88
2018-12-28T13:06:59.633Z,101948.63
2018-12-28T13:09:28.595Z,101952.45
2018-12-28T13:11:57.162Z,101946.09
2018-12-28T13:14:28.722Z,101947.34
2018-12-28T13:17:00.140Z,101956.77
2018-12-28T13:19:31.622Z,101958.51
2018-12-28T13:22:02.884Z,101955.03
2018-12-28T13:24:31.443Z,101958.51
2018-12-28T13:27:00.006Z,101958.92
2018-12-28T13:29:28.566Z,101960.66
2018-12-28T13:31:57.130Z,101968.03
2018-12-28T13:34:28.606Z,101961.61
2018-12-28T13:37:00.002Z,101971.42
2018-12-28T13:39:28.565Z,101974.89
2018-12-28T13:41:57.189Z,101968.91
2018-12-28T13:44:28.675Z,101972.33
2018-12-28T13:46:57.271Z,101975.33
2018-12-28T13:49:27.389Z,101972.34
2018-12-28T13:51:59.134Z,101972.76
2018-12-28T13:54:28.060Z,101980.89
2018-12-28T13:56:59.733Z,101978.66
2018-12-28T13:59:31.347Z,101978.73
2018-12-28T14:01:59.902Z,101981.78
2018-12-28T14:04:28.466Z,101984.75
2018-12-28T14:06:57.056Z,101982.72
2018-12-28T14:09:25.576Z,101984.48
2018-12-28T14:11:56.406Z,101992.16
2018-12-28T14:14:28.076Z,101993.89
2018-12-28T14:16:59.474Z,101999.11
2018-12-28T14:19:28.043Z,102003.38
2018-12-28T14:21:59.754Z,102003.85
2018-12-28T14:24:30.992Z,102001.67
2018-12-28T14:26:59.596Z,102013.41
2018-12-28T14:29:28.153Z,102016.46
2018-12-28T14:31:56.710Z,102017.30
2018-12-28T14:34:25.269Z,102013.84
2018-12-28T14:36:56.912Z,102021.98
2018-12-28T14:39:46.759Z,102024.62
2018-12-28T14:42:15.368Z,102024.22
2018-12-28T14:44:46.774Z,102028.54
2018-12-28T14:47:19.163Z,102028.10
2018-12-28T14:49:50.663Z,102033.27
2018-12-28T14:52:19.214Z,102041.01
2018-12-28T14:54:51.143Z,102037.09
2018-12-28T14:57:19.869Z,102034.59
2018-12-28T14:59:48.410Z,102039.34
2018-12-28T15:02:20.192Z,102043.66
2018-12-28T15:04:51.881Z,102045.83
2018-12-28T15:07:20.545Z,102042.84
2018-12-28T15:09:49.137Z,102044.20
2018-12-28T15:12:18.013Z,102053.19
2018-12-28T15:14:49.477Z,102049.33
2018-12-28T15:17:18.073Z,102046.28
2018-12-28T15:19:49.769Z,102043.31
2018-12-28T15:22:21.108Z,102049.34
2018-12-28T15:24:52.628Z,102051.12
2018-12-28T15:27:21.186Z,102055.83
2018-12-28T15:29:53.111Z,102051.93
2018-12-28T15:32:26.758Z,102061.42
2018-12-28T15:34:58.174Z,102062.65
2018-12-28T15:37:26.773Z,102051.87
2018-12-28T15:39:58.261Z,102056.59
2018-12-28T15:42:29.790Z,102056.12
2018-12-28T15:45:01.262Z,102059.61
2018-12-28T15:47:29.847Z,102058.33
2018-12-28T15:49:59.094Z,102059.64
2018-12-28T15:52:30.639Z,102063.91
2018-12-28T15:55:01.911Z,102060.51
2018-12-28T15:57:30.463Z,102063.09
2018-12-28T15:59:59.025Z,102061.34
2018-12-28T16:02:30.532Z,102069.17
2018-12-28T16:04:59.086Z,102066.94
2018-12-28T16:07:27.979Z,102066.98
2018-12-28T16:09:59.568Z,102063.12
2018-12-28T16:12:28.124Z,102061.92
2018-12-28T16:15:00.165Z,102061.91
2018-12-28T16:17:28.714Z,102073.98
2018-12-28T16:19:57.273Z,102073.96
2018-12-28T16:22:27.345Z,102074.79
2018-12-28T16:24:58.664Z,102077.89
2018-12-28T16:27:27.225Z,102073.98
2018-12-28T16:29:57.304Z,102079.18
2018-12-28T16:32:25.936Z,102083.04
2018-12-28T16:34:54.496Z,102083.07
2018-12-28T16:37:23.091Z,102085.67
2018-12-28T16:39:51.654Z,102083.09
2018-12-28T16:42:20.281Z,102083.95
2018-12-28T16:44:48.830Z,102090.45
2018-12-28T16:47:17.391Z,102091.77
2018-12-28T16:49:45.948Z,102102.95
2018-12-28T16:52:14.552Z,102104.72
2018-12-28T16:54:46.094Z,102105.14
2018-12-28T16:57:15.040Z,102109.45
2018-12-28T16:59:46.517Z,102115.95
2018-12-28T17:02:17.808Z,102128.02
2018-12-28T17:04:49.127Z,102125.89
2018-12-28T17:07:17.688Z,102122.84
2018-12-28T17:09:46.245Z,102124.13
2018-12-28T17:12:17.553Z,102131.47
2018-12-28T17:14:46.153Z,102135.79
2018-12-28T17:17:17.676Z,102137.56
2018-12-28T17:19:46.660Z,102147.48
2018-12-28T17:22:17.888Z,102154.83
2018-12-28T17:24:46.477Z,102148.77
2018-12-28T17:27:15.370Z,102159.14
2018-12-28T17:29:46.903Z,102160.88
2018-12-28T17:32:15.475Z,102156.59
2018-12-28T17:34:44.055Z,102166.09
2018-12-28T17:37:12.605Z,102170.38
2018-12-28T17:39:43.856Z,102177.73
2018-12-28T17:42:15.409Z,102178.61
2018-12-28T17:44:44.008Z,102179.48
2018-12-28T17:47:12.562Z,102187.22
2018-12-28T17:49:42.451Z,102190.23
2018-12-28T17:52:11.876Z,102187.66
2018-12-28T17:54:43.317Z,102190.69
2018-12-28T17:57:14.838Z,102189.80
2018-12-28T17:59:43.401Z,102194.14
2018-12-28T18:02:11.991Z,102194.97
2018-12-28T18:04:43.584Z,102199.29
2018-12-28T18:07:12.135Z,102202.33
2018-12-28T18:09:40.942Z,102201.47
2018-12-28T18:12:12.328Z,102205.77
2018-12-28T18:14:43.835Z,102207.52
2018-12-28T18:17:15.328Z,102201.47
2018-12-28T18:19:43.918Z,102208.80
2018-12-28T18:22:12.493Z,102203.20
2018-12-28T18:24:44.011Z,102206.63
2018-12-28T18:27:15.524Z,102207.08
2018-12-28T18:29:47.406Z,102211.81
2018-12-28T18:32:18.949Z,102213.55
2018-12-28T18:34:47.498Z,102204.05
2018-12-28T18:37:16.052Z,102210.95
2018-12-28T18:39:44.600Z,102210.94
2018-12-28T18:42:13.160Z,102210.52
2018-12-28T18:44:41.713Z,102213.95
2018-12-28T18:47:10.301Z,102216.13
2018-12-28T18:49:38.851Z,102220.00
2018-12-28T18:52:07.408Z,102220.42
2018-12-28T18:54:35.963Z,102223.88
2018-12-28T18:57:04.929Z,102225.12
2018-12-28T18:59:36.640Z,102223.85
2018-12-28T19:02:05.192Z,102215.64
2018-12-28T19:04:36.443Z,102217.85
2018-12-28T19:07:04.988Z,102214.41
2018-12-28T19:09:36.569Z,102210.95
2018-12-28T19:12:08.028Z,102219.55
2018-12-28T19:14:39.349Z,102214.38
2018-12-28T19:17:10.911Z,102220.42
2018-12-28T19:19:39.865Z,102213.11
2018-12-28T19:22:08.416Z,102217.39
2018-12-28T19:24:37.174Z,102226.03
2018-12-28T19:27:08.450Z,102226.47
2018-12-28T19:29:39.771Z,102229.47
2018-12-28T19:32:08.391Z,102231.23
2018-12-28T19:34:36.969Z,102229.52
2018-12-28T19:37:08.523Z,102234.70
2018-12-28T19:39:37.150Z,102237.30
2018-12-28T19:42:08.390Z,102236.84
2018-12-28T19:44:37.044Z,102241.19
2018-12-28T19:47:05.606Z,102254.11
2018-12-28T19:49:34.226Z,102250.66
2018-12-28T19:52:03.257Z,102248.93
2018-12-28T19:54:31.869Z,102242.88
2018-12-28T19:57:00.455Z,102247.63
2018-12-28T19:59:32.102Z,102244.58
2018-12-28T20:02:00.655Z,102250.65
2018-12-28T20:04:29.410Z,102243.77
2018-12-28T20:07:00.615Z,102244.62
2018-12-28T20:09:29.567Z,102255.82
2018-12-28T20:11:58.194Z,102255.41
2018-12-28T20:14:26.739Z,102259.72
2018-12-28T20:16:58.259Z,102260.58
2018-12-28T20:19:31.873Z,102266.63
2018-12-28T20:22:00.803Z,102261.02
2018-12-28T20:24:29.359Z,102262.31
2018-12-28T20:26:57.952Z,102265.76
2018-12-28T20:29:27.541Z,102263.61
2018-12-28T20:31:56.416Z,102267.91
2018-12-28T20:34:28.860Z,102264.05
2018-12-28T20:36:57.414Z,102267.94
2018-12-28T20:39:28.414Z,102269.20
2018-12-28T20:41:56.971Z,102265.75
2018-12-28T20:44:28.263Z,102264.48
2018-12-28T20:46:56.811Z,102265.32
2018-12-28T20:49:28.355Z,102265.75
2018-12-28T20:51:56.904Z,102265.31
2018-12-28T20:54:25.457Z,102260.14
2018-12-28T20:56:56.125Z,102259.28
2018-12-28T20:59:33.488Z,102251.52
2018-12-28T21:02:15.485Z,102253.69
2018-12-28T21:04:51.858Z,102253.24
2018-12-28T21:07:24.092Z,102260.15
2018-12-28T21:10:01.211Z,102253.24
2018-12-28T21:12:35.390Z,102255.83
2018-12-28T21:15:13.822Z,102262.31
2018-12-28T21:17:47.350Z,102264.47
2018-12-28T21:20:23.471Z,102260.16
2018-12-28T21:23:00.898Z,102257.15
2018-12-28T21:25:32.242Z,102256.28
2018-12-28T21:28:03.673Z,102253.27
2018-12-28T21:30:32.234Z,102257.13
2018-12-28T21:33:03.855Z,102256.70
2018-12-28T21:35:32.562Z,102263.20
2018-12-28T21:38:03.849Z,102256.72
2018-12-28T21:40:32.470Z,102244.21
2018-12-28T21:43:01.020Z,102250.66
2018-12-28T21:45:29.945Z,102247.20
2018-12-28T21:48:01.632Z,102252.39
2018-12-28T21:50:32.992Z,102248.08
2018-12-28T21:53:01.529Z,102242.05
2018-12-28T21:55:33.002Z,102244.22
2018-12-28T21:58:01.977Z,102237.73
2018-12-28T22:00:30.558Z,102238.59
2018-12-28T22:03:01.774Z,102242.91
2018-12-28T22:05:30.648Z,102244.62
2018-12-28T22:08:02.252Z,102245.94
2018-12-28T22:10:30.816Z,102246.77
2018-12-28T22:13:02.626Z,102248.07
2018-12-28T22:15:33.892Z,102246.37
2018-12-28T22:18:06.381Z,102240.33
2018-12-28T22:20:34.857Z,102249.80
2018-12-28T22:23:03.811Z,102247.66
2018-12-28T22:25:35.270Z,102248.95
2018-12-28T22:28:06.484Z,102251.52
2018-12-28T22:30:41.058Z,102248.06
2018-12-28T22:33:09.617Z,102248.50
2018-12-28T22:35:41.698Z,102246.38
2018-12-28T22:38:10.246Z,102249.80
2018-12-28T22:40:38.797Z,102247.22
2018-12-28T22:43:10.199Z,102245.95
2018-12-28T22:45:39.150Z,102248.07
2018-12-28T22:48:10.620Z,102250.66
2018-12-28T22:50:39.214Z,102251.12
2018-12-28T22:53:08.137Z,102252.41
2018-12-28T22:55:40.039Z,102251.95
2018-12-28T22:58:11.372Z,102243.36
2018-12-28T23:00:47.313Z,102253.25
2018-12-28T23:03:18.763Z,102245.50
2018-12-28T23:05:50.033Z,102249.39
2018-12-28T23:08:18.594Z,102246.80
2018-12-28T23:10:47.138Z,102244.20
2018-12-28T23:13:16.019Z,102251.53
2018-12-28T23:15:44.574Z,102259.73
2018-12-28T23:18:13.213Z,102257.13
2018-12-28T23:20:41.764Z,102254.56
2018-12-28T23:23:10.326Z,102260.61
2018-12-28T23:25:41.800Z,102261.91
2018-12-28T23:28:10.360Z,102259.73
2018-12-28T23:30:38.918Z,102256.70
2018-12-28T23:33:10.212Z,102258.00
2018-12-28T23:35:39.096Z,102252.34
2018-12-28T23:38:07.658Z,102259.71
2018-12-28T23:40:37.855Z,102260.17
2018-12-28T23:43:06.412Z,102256.30
2018-12-28T23:45:36.115Z,102259.30
2018-12-28T23:48:06.607Z,102256.70
2018-12-28T23:50:36.253Z,102255.00
2018-12-28T23:53:10.272Z,102257.99
2018-12-28T23:55:38.867Z,102256.27
2018-12-28T23:58:10.082Z,102257.99
